2-й Городок

Карта отелей и гостиниц, располагающихся рядом с аэропортом 2-й Городок :

2-й Городок Курганская область 56° 2' 17.9988" N, 63° 56' 30.0012" E
2-й Городок Курганская область 56° 2' 17.9988" N, 63° 56' 30.0012" E
Код аэродрома ИКАО
H498
Код аэродрома RU
Х498
Координаты
N56.03833° E063.94167°
Превышение над уровнем моря
110
Основная полоса
Курс магнитный
Длина основной ВПП
50
Ширина основной ВПП
50
Покрытие основной ВПП
Твёрдое (бетон)
Освещение ВПП
Нет
Тип: 
Вертодром
Класс аэродрома: 
Принадлежность: 
МО
Статус: 
Недействующий
Сайт: 
E-mail аэродрома: 
Страна: 
Россия
Регион: 
Курганская область
Город: 
Дополнительная информация: 

Найти трансфер

С помощью этой формы Вы можете найти трансфер из аэропорта 2-й Городок в город, аэропорт или вокзал:

Карта места

Javascript is required to view this map.

Погода в аэропортах:

Авиационная погода в Усть-Каменогорске

Регион: 
Погода METAR: 
UASK 251900Z VRB01MPS 2500 SN OVC037 M21/M23 Q1034 R30/490245 NOSIG RMK QFE750/1000
Время наблюдения
2021-01-25T19:00:00Z
Температура C
-21.0
Точка росы
-23.0
Направление ветра
0
Скорость ветра (узлы)
2
Метео видимость
1.55
Явления погоды
SN
Условия полета
IFR
Аэропорт подробнее: 

Авиационная погода в Алматы

Регион: 
Погода METAR: 
UAAA 251830Z 18001MPS 2100 BR FU SCT012 BKN050 M07/M09 Q1030 R23R/3///60 R23L/3///45 NOSIG
Время наблюдения
2021-01-25T18:30:00Z
Температура C
-7.0
Точка росы
-9.0
Направление ветра
180
Скорость ветра (узлы)
2
Метео видимость
1.3
Явления погоды
BR FU
Условия полета
IFR
Аэропорт подробнее: 

Авиационная погода в Гродно

Регион: 
Погода METAR: 
UMMG 251240Z 03003MPS 0700 R17/0700 +SN OVC002 00/M01 Q0999 R17/590838 NOSIG RMK QBB060
Время наблюдения
2021-01-25T12:40:00Z
Температура C
0.0
Точка росы
-1.0
Направление ветра
30
Скорость ветра (узлы)
6
Метео видимость
0.43
Явления погоды
+SN
Условия полета
LIFR
Аэропорт подробнее: 

Авиационная погода в Одессе

Регион: 
Погода METAR: 
UKOO 251830Z 22010MPS 9999 -RA OVC008 06/06 Q0996 R16/290052 NOSIG
Время наблюдения
2021-01-25T18:30:00Z
Температура C
6.0
Точка росы
6.0
Направление ветра
220
Скорость ветра (узлы)
19
Метео видимость
6.21
Явления погоды
-RA
Условия полета
IFR
Аэропорт подробнее: